Overview Statistics Trail Chart Weather Telemetry Raw packets
 

This is the latest recevied weather packets stored in our database for station/object K7OWW-2. If no packets are shown the sender has not sent any weather packets the latest 10 day(s).

<< 14 15 16 17 18 19 20 >>
Time Temp. Humidity Pressure Rain* Wind** Luminosity Snow
1788307730 17.78° C 56% 1007.8 hPa 0 mm - - -
1788307130 17.22° C 56% 1007.7 hPa 0 mm - - -
1788306530 17.78° C 55% 1007.7 hPa 0 mm - - -
1788305930 17.78° C 57% 1007.6 hPa 0.25 mm - - -
1788305330 17.22° C 57% 1007.5 hPa 0.25 mm - - -
1788304730 17.22° C 60% 1007.4 hPa 0.25 mm - - -
1788304130 16.11° C 64% 1007.3 hPa 0.25 mm - - -
1788303530 15.56° C 73% 1007.3 hPa 0.25 mm - - -
1788302930 15.56° C 75% 1007.3 hPa 0.25 mm - - -
1788302330 16.67° C 61% 1007.3 hPa 0 mm - - -
1788301730 18.33° C 52% 1007.3 hPa 0 mm - - -
1788301130 18.89° C 44% 1007.1 hPa 0 mm - - -
1788300530 19.44° C 45% 1006.9 hPa 0 mm - - -
1788299930 19.44° C 44% 1006.9 hPa 0 mm - - -
1788299330 20° C 44% 1007 hPa 0 mm - - -
1788298730 20.56° C 42% 1007 hPa 0 mm - - -
1788298130 21.11° C 41% 1007 hPa 0 mm - - -
1788297530 21.67° C 40% 1006.9 hPa 0 mm - - -
1788296930 20° C 43% 1006.9 hPa 0 mm - - -
1788296330 20° C 44% 1007 hPa 0 mm - - -
1788295730 20° C 43% 1007 hPa 0 mm - - -
1788295130 20° C 45% 1007 hPa 0 mm - - -
1788294535 19.44° C 44% 1007 hPa 0 mm - - -
1788293930 19.44° C 43% 1007 hPa 0 mm - - -
1788293330 20° C 44% 1007.1 hPa 0 mm - - -

* Rain latest hour (hover to see other rain measurements)
** Current wind speed in m/s (hover to see current wind gust speed)